Time;durP1;ratioP1;P1;durP2;ratioP2;P2;SDS_P1;SDS_P2;PMS_P1;PMS_P2;Temp;Humidity;BMP_temperature;BMP_pressure;BME280_temperature;BME280_humidity;BME280_pressure;Samples;Min_cycle;Max_cycle;Signal;HPM_P1;HPM_P2
2024/04/24 00:02:07;;;;;;;16.77;12.55;;;;;;;;;;5341155;26;20005;-60
2024/04/24 00:04:33;;;;;;;17.57;12.87;;;;;;;;;;5310532;26;20453;-60
2024/04/24 00:07:00;;;;;;;16.50;13.27;;;;;;;;;;5311835;26;19998;-60
2024/04/24 00:09:26;;;;;;;16.45;12.48;;;;;;;;;;5311552;27;20002;-60
2024/04/24 00:11:53;;;;;;;14.75;12.05;;;;;;;;;;5330209;26;20007;-60
2024/04/24 00:14:21;;;;;;;14.30;11.65;;;;;;;;;;5346183;26;20011;-60
2024/04/24 00:16:47;;;;;;;15.55;13.20;;;;;;;;;;5318890;26;20029;-60
2024/04/24 00:19:14;;;;;;;16.30;12.80;;;;;;;;;;5311451;27;20367;-60
2024/04/24 00:21:40;;;;;;;19.25;12.80;;;;;;;;;;5283222;26;20220;-60
2024/04/24 00:24:06;;;;;;;17.63;13.60;;;;;;;;;;5311322;27;20000;-60
2024/04/24 00:26:33;;;;;;;19.47;13.87;;;;;;;;;;5305127;26;20012;-60
2024/04/24 00:28:59;;;;;;;;;;;;;;;;;;5281567;27;19997;-60
2024/04/24 00:31:25;;;;;;;14.73;12.55;;;;;;;;;;5313507;26;19934;-60
2024/04/24 00:33:52;;;;;;;18.55;13.45;;;;;;;;;;5345832;26;20001;-60
2024/04/24 00:36:18;;;;;;;20.00;13.90;;;;;;;;;;5345943;26;20003;-60
2024/04/24 00:38:44;;;;;;;16.40;13.00;;;;;;;;;;5345001;26;19992;-60
2024/04/24 00:41:10;;;;;;;20.08;13.98;;;;;;;;;;5345658;26;20005;-60
2024/04/24 00:43:37;;;;;;;17.20;13.57;;;;;;;;;;5328989;26;20001;-61
2024/04/24 00:46:03;;;;;;;20.15;14.57;;;;;;;;;;5292254;26;20006;-60
2024/04/24 00:48:30;;;;;;;18.75;14.30;;;;;;;;;;5316875;26;20352;-60
2024/04/24 00:50:57;;;;;;;24.15;15.23;;;;;;;;;;5279621;27;19993;-60
2024/04/24 00:53:23;;;;;;;22.88;16.08;;;;;;;;;;5311291;27;19994;-60
2024/04/24 00:55:49;;;;;;;22.10;14.93;;;;;;;;;;5311473;27;20460;-60
2024/04/24 00:58:17;;;;;;;18.80;14.13;;;;;;;;;;5325270;26;20450;-60
2024/04/24 01:00:43;;;;;;;17.40;13.80;;;;;;;;;;5289442;26;20020;-60
2024/04/24 01:03:10;;;;;;;18.15;12.98;;;;;;;;;;5342847;26;20005;-61
2024/04/24 01:05:37;;;;;;;18.70;13.02;;;;;;;;;;5345243;26;20380;-60
2024/04/24 01:08:04;;;;;;;18.85;14.82;;;;;;;;;;5321739;26;20330;-60
2024/04/24 01:10:30;;;;;;;16.50;12.55;;;;;;;;;;5298601;26;20391;-60
2024/04/24 01:12:57;;;;;;;18.25;14.70;;;;;;;;;;5345295;26;20043;-60
2024/04/24 01:15:23;;;;;;;18.75;14.10;;;;;;;;;;5310362;26;20005;-60
2024/04/24 01:17:50;;;;;;;17.92;13.70;;;;;;;;;;5323256;26;20001;-60
2024/04/24 01:20:23;;;;;;;20.05;14.13;;;;;;;;;;5344632;26;20009;-60
2024/04/24 01:23:08;;;;;;;17.70;13.13;;;;;;;;;;5345497;26;20070;-60
2024/04/24 01:25:39;;;;;;;21.65;15.45;;;;;;;;;;5311250;27;20012;-60
2024/04/24 01:28:05;;;;;;;22.08;15.77;;;;;;;;;;5313410;26;20011;-60
2024/04/24 01:30:32;;;;;;;20.48;15.25;;;;;;;;;;5329675;26;20002;-60
2024/04/24 01:32:58;;;;;;;24.17;15.97;;;;;;;;;;5310518;27;20041;-59
2024/04/24 01:35:24;;;;;;;27.08;17.48;;;;;;;;;;5336398;26;20082;-60
2024/04/24 01:37:50;;;;;;;25.13;17.05;;;;;;;;;;5344976;26;20008;-60
2024/04/24 01:40:17;;;;;;;24.35;16.65;;;;;;;;;;5344786;26;20028;-60
2024/04/24 01:42:43;;;;;;;25.90;14.50;;;;;;;;;;5307181;27;20061;-60
2024/04/24 01:45:09;;;;;;;23.02;16.27;;;;;;;;;;5296036;26;20454;-60
2024/04/24 01:47:35;;;;;;;24.08;16.63;;;;;;;;;;5313138;26;20016;-61
2024/04/24 01:50:01;;;;;;;28.45;17.90;;;;;;;;;;5311351;26;20118;-60
2024/04/24 01:52:27;;;;;;;27.58;19.48;;;;;;;;;;5344598;26;20001;-61
2024/04/24 01:54:54;;;;;;;32.45;18.70;;;;;;;;;;5272769;27;20079;-61
2024/04/24 01:57:21;;;;;;;26.83;18.48;;;;;;;;;;5310110;27;20029;-60
2024/04/24 01:59:47;;;;;;;33.35;20.38;;;;;;;;;;5309854;27;20009;-60
2024/04/24 02:02:13;;;;;;;33.00;20.98;;;;;;;;;;5343997;26;20012;-61
2024/04/24 02:04:39;;;;;;;29.67;20.35;;;;;;;;;;5326613;26;20002;-60
2024/04/24 02:07:05;;;;;;;30.05;20.13;;;;;;;;;;5313562;27;19998;-60
2024/04/24 02:09:31;;;;;;;30.02;20.35;;;;;;;;;;5312998;26;20001;-60
2024/04/24 02:11:58;;;;;;;29.38;19.63;;;;;;;;;;5311326;26;20004;-61
2024/04/24 02:14:24;;;;;;;28.70;20.20;;;;;;;;;;5276309;27;20001;-61
2024/04/24 02:16:50;;;;;;;28.63;18.38;;;;;;;;;;5307738;26;20005;-60
2024/04/24 02:19:16;;;;;;;27.08;19.50;;;;;;;;;;5341515;26;20049;-61
2024/04/24 02:21:42;;;;;;;29.73;20.20;;;;;;;;;;5336638;26;20485;-60
2024/04/24 02:24:09;;;;;;;34.70;20.30;;;;;;;;;;5347094;26;20395;-60
2024/04/24 02:26:35;;;;;;;30.75;20.02;;;;;;;;;;5317197;26;20008;-60
2024/04/24 02:29:01;;;;;;;26.95;18.58;;;;;;;;;;5321574;26;20421;-60
2024/04/24 02:31:27;;;;;;;24.23;17.60;;;;;;;;;;5332682;26;20001;-60
2024/04/24 02:33:53;;;;;;;26.63;19.77;;;;;;;;;;5347090;26;20001;-60
2024/04/24 02:36:19;;;;;;;26.92;18.95;;;;;;;;;;5314826;26;20005;-60
2024/04/24 02:38:46;;;;;;;27.67;19.35;;;;;;;;;;5347111;26;20033;-60
2024/04/24 02:41:12;;;;;;;28.70;19.67;;;;;;;;;;5337019;26;20481;-60
2024/04/24 02:43:38;;;;;;;25.38;18.27;;;;;;;;;;5347266;26;20092;-60
2024/04/24 02:46:04;;;;;;;24.40;18.35;;;;;;;;;;5333013;26;20021;-61
2024/04/24 02:48:31;;;;;;;26.00;18.45;;;;;;;;;;5323067;26;20022;-61
2024/04/24 02:50:57;;;;;;;25.48;18.50;;;;;;;;;;5330927;26;20006;-60
2024/04/24 02:53:23;;;;;;;27.10;18.52;;;;;;;;;;5284029;27;20413;-60
2024/04/24 02:55:49;;;;;;;28.70;18.80;;;;;;;;;;5301246;27;19998;-61
2024/04/24 02:58:15;;;;;;;27.40;19.85;;;;;;;;;;5312413;26;20016;-61
2024/04/24 03:00:41;;;;;;;23.80;17.83;;;;;;;;;;5319217;26;20095;-60
2024/04/24 03:03:08;;;;;;;25.50;19.17;;;;;;;;;;5337548;26;20005;-61
2024/04/24 03:05:34;;;;;;;27.27;20.55;;;;;;;;;;5338691;26;20005;-61
2024/04/24 03:08:00;;;;;;;24.33;18.00;;;;;;;;;;5345208;26;20422;-61
2024/04/24 03:10:27;;;;;;;25.88;19.60;;;;;;;;;;5309158;26;20342;-60
2024/04/24 03:12:53;;;;;;;29.45;18.77;;;;;;;;;;5344135;26;20000;-60
2024/04/24 03:15:19;;;;;;;27.90;19.70;;;;;;;;;;5343153;26;20354;-60
2024/04/24 03:17:45;;;;;;;28.17;20.85;;;;;;;;;;5303160;26;20004;-60
2024/04/24 03:20:11;;;;;;;26.17;19.25;;;;;;;;;;5312670;27;20307;-61
2024/04/24 03:22:38;;;;;;;26.67;19.67;;;;;;;;;;5295233;26;20001;-60
2024/04/24 03:25:04;;;;;;;26.02;19.00;;;;;;;;;;5346984;26;20520;-60
2024/04/24 03:27:30;;;;;;;27.97;18.43;;;;;;;;;;5347121;26;20330;-60
2024/04/24 03:29:56;;;;;;;30.42;20.58;;;;;;;;;;5317119;26;20241;-60
2024/04/24 03:32:22;;;;;;;26.55;19.40;;;;;;;;;;5344646;26;19997;-60
2024/04/24 03:34:49;;;;;;;27.38;19.73;;;;;;;;;;5319906;26;20455;-61
2024/04/24 03:37:15;;;;;;;31.33;20.13;;;;;;;;;;5342996;26;20001;-60
2024/04/24 03:39:41;;;;;;;28.40;18.58;;;;;;;;;;5315368;26;20013;-60
2024/04/24 03:42:07;;;;;;;28.50;20.40;;;;;;;;;;5313054;26;20023;-61
2024/04/24 03:44:33;;;;;;;31.10;20.15;;;;;;;;;;5346726;26;20025;-61
2024/04/24 03:46:59;;;;;;;28.08;19.77;;;;;;;;;;5313487;26;20123;-60
2024/04/24 03:49:26;;;;;;;29.48;20.75;;;;;;;;;;5292149;27;20034;-61
2024/04/24 03:51:52;;;;;;;28.00;19.33;;;;;;;;;;5311729;27;20009;-60
2024/04/24 03:54:18;;;;;;;26.67;19.13;;;;;;;;;;5337137;26;20012;-51
2024/04/24 03:56:44;;;;;;;29.73;19.63;;;;;;;;;;5343504;26;20008;-48
2024/04/24 03:59:10;;;;;;;36.83;21.08;;;;;;;;;;5341841;26;20009;-61
2024/04/24 04:01:36;;;;;;;27.48;19.65;;;;;;;;;;5346117;26;20349;-60
2024/04/24 04:04:03;;;;;;;32.40;20.17;;;;;;;;;;5346070;26;20012;-60
2024/04/24 04:06:29;;;;;;;31.90;20.93;;;;;;;;;;5346114;26;20007;-61
2024/04/24 04:08:55;;;;;;;27.65;19.83;;;;;;;;;;5345909;26;20009;-62
2024/04/24 04:11:21;;;;;;;28.45;19.77;;;;;;;;;;5315725;26;20007;-60
2024/04/24 04:13:47;;;;;;;29.50;20.02;;;;;;;;;;5346150;26;19997;-60
2024/04/24 04:16:14;;;;;;;28.38;19.55;;;;;;;;;;5346294;26;20452;-60
2024/04/24 04:18:40;;;;;;;29.10;19.67;;;;;;;;;;5346391;26;20011;-60
2024/04/24 04:21:06;;;;;;;29.17;19.63;;;;;;;;;;5315332;26;20059;-60
2024/04/24 04:23:32;;;;;;;27.08;19.48;;;;;;;;;;5345612;26;19993;-60
2024/04/24 04:25:58;;;;;;;27.77;18.65;;;;;;;;;;5345918;26;20001;-60
2024/04/24 04:28:24;;;;;;;30.05;18.40;;;;;;;;;;5346214;26;19997;-61
2024/04/24 04:30:51;;;;;;;28.85;19.30;;;;;;;;;;5345779;26;20028;-61
2024/04/24 04:33:17;;;;;;;27.73;19.25;;;;;;;;;;5345893;26;20005;-60
2024/04/24 04:35:43;;;;;;;26.63;17.98;;;;;;;;;;5345911;26;20015;-60
2024/04/24 04:38:10;;;;;;;;;;;;;;;;;;5345557;26;20012;-60
2024/04/24 04:40:36;;;;;;;26.33;18.67;;;;;;;;;;5314876;26;20394;-61
2024/04/24 04:43:03;;;;;;;25.88;16.35;;;;;;;;;;5315306;26;19997;-61
2024/04/24 04:45:29;;;;;;;24.17;17.17;;;;;;;;;;5345742;26;19997;-60
2024/04/24 04:47:56;;;;;;;26.95;18.45;;;;;;;;;;5345775;26;20356;-61
2024/04/24 04:50:22;;;;;;;27.05;18.60;;;;;;;;;;5345587;26;20100;-60
2024/04/24 04:52:48;;;;;;;30.65;18.77;;;;;;;;;;5345835;26;20012;-60
2024/04/24 04:55:14;;;;;;;24.95;16.80;;;;;;;;;;5345560;26;20001;-60
2024/04/24 04:57:40;;;;;;;24.48;17.80;;;;;;;;;;5343872;26;20008;-61
2024/04/24 05:00:07;;;;;;;27.25;18.23;;;;;;;;;;5355955;21;20001;-59
2024/04/24 05:02:35;;;;;;;25.92;17.77;;;;;;;;;;5380249;26;20029;-60
2024/04/24 05:05:01;;;;;;;30.67;18.13;;;;;;;;;;5380466;26;19992;-62
2024/04/24 05:07:28;;;;;;;25.27;17.15;;;;;;;;;;5380520;26;19992;-61
2024/04/24 05:09:54;;;;;;;26.23;16.75;;;;;;;;;;5379830;26;19996;-61
2024/04/24 05:12:20;;;;;;;26.17;16.58;;;;;;;;;;5380256;26;20460;-61
2024/04/24 05:14:50;;;;;;;22.87;16.13;;;;;;;;;;5380479;26;20028;-62
2024/04/24 05:17:16;;;;;;;24.35;16.85;;;;;;;;;;5380388;26;19992;-61
2024/04/24 05:19:42;;;;;;;25.20;16.88;;;;;;;;;;5379719;26;20000;-61
2024/04/24 05:22:09;;;;;;;28.75;17.45;;;;;;;;;;5349522;26;20073;-62
2024/04/24 05:24:36;;;;;;;22.58;15.25;;;;;;;;;;5349162;26;20003;-60
2024/04/24 05:29:47;;;;;;;21.13;15.70;;;;;;;;;;5379794;26;20011;-61
2024/04/24 05:32:13;;;;;;;25.33;17.52;;;;;;;;;;5380130;26;20007;-60
2024/04/24 05:34:39;;;;;;;26.77;17.17;;;;;;;;;;5380420;26;20004;-59
2024/04/24 05:37:05;;;;;;;27.75;17.15;;;;;;;;;;5379541;26;20733;-63
2024/04/24 05:39:31;;;;;;;22.52;16.10;;;;;;;;;;5379446;26;20012;-63
2024/04/24 05:41:58;;;;;;;24.03;16.90;;;;;;;;;;5380215;26;20011;-63
2024/04/24 05:44:27;;;;;;;23.42;16.88;;;;;;;;;;5348935;26;20000;-63
2024/04/24 05:46:53;;;;;;;21.30;15.70;;;;;;;;;;5379417;26;19996;-62
2024/04/24 05:49:19;;;;;;;24.40;16.65;;;;;;;;;;5378925;26;20004;-61
2024/04/24 05:51:45;;;;;;;23.23;17.13;;;;;;;;;;5347471;26;19996;-64
2024/04/24 05:54:12;;;;;;;22.42;14.68;;;;;;;;;;5379656;26;20065;-56
2024/04/24 05:56:38;;;;;;;19.08;14.93;;;;;;;;;;5379856;26;20004;-64
2024/04/24 05:59:04;;;;;;;20.10;14.45;;;;;;;;;;5378914;26;20004;-63
2024/04/24 06:01:31;;;;;;;20.75;15.27;;;;;;;;;;5379729;26;19988;-64
2024/04/24 06:03:57;;;;;;;22.07;15.50;;;;;;;;;;5379692;26;20505;-61
2024/04/24 06:06:23;;;;;;;22.38;15.60;;;;;;;;;;5379689;26;19996;-62
2024/04/24 06:08:50;;;;;;;20.67;15.57;;;;;;;;;;5379083;26;20533;-63
2024/04/24 06:11:16;;;;;;;20.38;14.02;;;;;;;;;;5379394;26;20000;-63
2024/04/24 06:13:43;;;;;;;21.60;13.87;;;;;;;;;;5379252;26;19992;-63
2024/04/24 06:16:09;;;;;;;21.23;15.48;;;;;;;;;;5348593;26;20003;-63
2024/04/24 06:18:35;;;;;;;20.55;13.95;;;;;;;;;;5348928;26;19996;-63
2024/04/24 06:21:01;;;;;;;16.33;9.95;;;;;;;;;;5378816;26;20007;-64
2024/04/24 06:23:28;;;;;;;17.83;13.77;;;;;;;;;;5379144;26;19996;-65
2024/04/24 06:25:54;;;;;;;23.30;15.20;;;;;;;;;;5379311;26;20514;-64
2024/04/24 06:28:20;;;;;;;17.75;13.27;;;;;;;;;;5379226;26;19992;-64
2024/04/24 06:30:47;;;;;;;17.25;12.70;;;;;;;;;;5378648;26;20461;-64
2024/04/24 06:33:13;;;;;;;17.23;12.52;;;;;;;;;;5378925;26;20000;-64
2024/04/24 06:35:39;;;;;;;15.73;11.18;;;;;;;;;;5378926;26;20003;-64
2024/04/24 06:38:05;;;;;;;13.93;9.73;;;;;;;;;;5379158;26;20467;-63
2024/04/24 06:40:31;;;;;;;16.73;12.70;;;;;;;;;;5347998;26;20064;-63
2024/04/24 06:42:58;;;;;;;13.38;10.35;;;;;;;;;;5379061;26;20007;-63
2024/04/24 06:45:24;;;;;;;15.75;11.73;;;;;;;;;;5347611;26;20005;-63
2024/04/24 06:47:50;;;;;;;15.02;12.27;;;;;;;;;;5381397;26;20000;-64
2024/04/24 06:50:16;;;;;;;17.20;12.63;;;;;;;;;;5381831;26;19992;-64
2024/04/24 06:52:42;;;;;;;14.98;12.73;;;;;;;;;;5382204;26;19996;-64
2024/04/24 06:55:08;;;;;;;18.52;11.80;;;;;;;;;;5382368;26;19993;-64
2024/04/24 06:57:35;;;;;;;16.48;11.00;;;;;;;;;;5382136;26;20004;-64
2024/04/24 07:00:02;;;;;;;15.30;10.95;;;;;;;;;;5381902;26;20459;-64
2024/04/24 07:02:28;;;;;;;13.60;11.23;;;;;;;;;;5351062;26;20007;-64
2024/04/24 07:04:54;;;;;;;14.33;10.90;;;;;;;;;;5382156;26;19992;-64
2024/04/24 07:07:21;;;;;;;17.10;10.48;;;;;;;;;;5382283;26;20325;-64
2024/04/24 07:09:47;;;;;;;14.02;10.77;;;;;;;;;;5381626;26;19992;-64
2024/04/24 07:12:13;;;;;;;13.25;11.07;;;;;;;;;;5382120;26;20000;-64
2024/04/24 07:14:39;;;;;;;17.13;11.45;;;;;;;;;;5382376;26;20359;-64
2024/04/24 07:17:06;;;;;;;13.63;9.75;;;;;;;;;;5381834;26;20069;-65
2024/04/24 07:19:32;;;;;;;18.05;11.15;;;;;;;;;;5381592;26;19996;-64
2024/04/24 07:21:58;;;;;;;12.82;10.23;;;;;;;;;;5350990;26;20076;-64
2024/04/24 07:24:24;;;;;;;13.30;9.85;;;;;;;;;;5381784;26;20032;-59
2024/04/24 07:26:50;;;;;;;13.63;10.10;;;;;;;;;;5351131;26;19992;-62
2024/04/24 07:29:17;;;;;;;10.53;8.00;;;;;;;;;;5381360;26;20008;-62
2024/04/24 07:31:43;;;;;;;11.63;8.77;;;;;;;;;;5381766;26;19988;-63
2024/04/24 07:34:09;;;;;;;10.05;7.82;;;;;;;;;;5350995;26;19996;-62
2024/04/24 07:36:35;;;;;;;10.02;7.60;;;;;;;;;;5381586;26;20065;-62
2024/04/24 07:39:02;;;;;;;12.23;8.35;;;;;;;;;;5381469;26;20340;-62
2024/04/24 07:41:28;;;;;;;11.07;8.07;;;;;;;;;;5350484;26;20379;-61
2024/04/24 07:43:54;;;;;;;8.93;6.90;;;;;;;;;;5381688;26;20007;-60
2024/04/24 07:46:24;;;;;;;9.45;5.80;;;;;;;;;;5350822;26;20004;-63
2024/04/24 07:48:50;;;;;;;9.32;6.25;;;;;;;;;;5381035;26;20043;-63
2024/04/24 07:51:16;;;;;;;8.90;6.50;;;;;;;;;;5381343;26;20361;-58
2024/04/24 07:53:43;;;;;;;8.30;6.63;;;;;;;;;;5350508;26;20000;-60
2024/04/24 07:56:09;;;;;;;9.55;5.40;;;;;;;;;;5381164;26;20017;-60
2024/04/24 07:58:35;;;;;;;6.57;4.78;;;;;;;;;;5350107;26;20003;-62
2024/04/24 08:01:01;;;;;;;8.55;6.13;;;;;;;;;;5381012;26;20341;-57
2024/04/24 08:03:28;;;;;;;6.00;5.20;;;;;;;;;;5381491;26;20004;-59
2024/04/24 08:05:54;;;;;;;6.97;4.72;;;;;;;;;;5381443;26;19996;-57
2024/04/24 08:08:20;;;;;;;6.55;4.30;;;;;;;;;;5381468;26;20034;-59
2024/04/24 08:10:47;;;;;;;5.18;4.00;;;;;;;;;;5380887;26;20000;-58
2024/04/24 08:13:13;;;;;;;5.07;4.38;;;;;;;;;;5350271;26;20453;-59
2024/04/24 08:15:39;;;;;;;6.95;4.65;;;;;;;;;;5381246;26;20020;-61
2024/04/24 08:18:06;;;;;;;7.00;4.72;;;;;;;;;;5381426;26;20441;-59
2024/04/24 08:20:32;;;;;;;;;;;;;;;;;;5381238;26;20007;-59
2024/04/24 08:22:58;;;;;;;5.88;4.75;;;;;;;;;;5349970;26;19925;-59
2024/04/24 08:25:25;;;;;;;10.57;5.05;;;;;;;;;;5381103;26;19992;-59
2024/04/24 08:27:51;;;;;;;5.53;4.53;;;;;;;;;;5350545;26;20028;-59
2024/04/24 08:30:17;;;;;;;6.45;4.60;;;;;;;;;;5380704;26;20003;-59
2024/04/24 08:32:43;;;;;;;5.50;4.55;;;;;;;;;;5380921;26;20503;-58
2024/04/24 08:35:09;;;;;;;5.53;4.40;;;;;;;;;;5380602;26;19996;-60
2024/04/24 08:37:36;;;;;;;4.88;4.18;;;;;;;;;;5381191;26;19992;-60
2024/04/24 08:40:02;;;;;;;4.95;3.95;;;;;;;;;;5380266;26;19999;-62
2024/04/24 08:42:29;;;;;;;5.43;4.10;;;;;;;;;;5380534;26;20003;-59
2024/04/24 08:44:59;;;;;;;7.38;4.00;;;;;;;;;;5381035;26;20336;-58
2024/04/24 08:47:25;;;;;;;5.03;3.88;;;;;;;;;;5350366;26;19992;-60
2024/04/24 08:49:53;;;;;;;4.77;4.20;;;;;;;;;;5380545;26;20053;-61
2024/04/24 08:52:21;;;;;;;5.40;4.15;;;;;;;;;;5380876;26;20016;-60
2024/04/24 08:54:50;;;;;;;7.22;3.47;;;;;;;;;;5349987;26;20000;-62
2024/04/24 08:57:16;;;;;;;5.10;4.00;;;;;;;;;;5380440;26;20341;-62
2024/04/24 08:59:42;;;;;;;7.27;3.70;;;;;;;;;;5349196;26;20340;-61
2024/04/24 09:02:09;;;;;;;5.65;4.35;;;;;;;;;;5380675;26;20007;-59
2024/04/24 09:04:36;;;;;;;5.00;3.38;;;;;;;;;;5349468;26;19988;-61
2024/04/24 09:07:03;;;;;;;4.10;3.60;;;;;;;;;;5380294;26;19992;-57
2024/04/24 09:09:29;;;;;;;3.90;3.50;;;;;;;;;;5348705;26;20456;-60
2024/04/24 09:12:03;;;;;;;7.07;4.90;;;;;;;;;;5348908;26;20042;-59
2024/04/24 09:14:31;;;;;;;6.63;3.92;;;;;;;;;;5380399;26;20090;-60
2024/04/24 09:16:58;;;;;;;4.40;3.92;;;;;;;;;;5380143;26;20399;-60
2024/04/24 09:19:24;;;;;;;6.90;3.78;;;;;;;;;;5349197;26;20069;-60
2024/04/24 09:21:51;;;;;;;8.15;3.83;;;;;;;;;;5380462;26;20011;-61
2024/04/24 09:24:17;;;;;;;6.82;3.67;;;;;;;;;;5349443;26;20004;-61
2024/04/24 09:26:43;;;;;;;4.43;3.67;;;;;;;;;;5380168;26;20070;-59
2024/04/24 09:29:11;;;;;;;5.47;3.67;;;;;;;;;;5380048;26;20730;-58
2024/04/24 09:31:40;;;;;;;6.20;3.72;;;;;;;;;;5379898;26;19999;-60
2024/04/24 09:34:07;;;;;;;3.78;3.38;;;;;;;;;;5380172;26;20004;-61
2024/04/24 09:36:37;;;;;;;4.57;3.75;;;;;;;;;;5380242;26;20007;-60
2024/04/24 09:39:16;;;;;;;6.63;3.60;;;;;;;;;;5379630;26;20011;-60
2024/04/24 09:41:44;;;;;;;3.50;3.20;;;;;;;;;;5380484;26;20004;-58
2024/04/24 09:44:13;;;;;;;4.18;3.78;;;;;;;;;;5380225;26;20007;-58
2024/04/24 09:46:53;;;;;;;3.40;2.97;;;;;;;;;;5379922;26;19992;-57
2024/04/24 09:49:19;;;;;;;3.70;3.30;;;;;;;;;;5379683;26;20453;-58
2024/04/24 09:51:46;;;;;;;4.38;3.60;;;;;;;;;;5320175;26;20007;-57
2024/04/24 09:54:13;;;;;;;4.00;3.60;;;;;;;;;;5349011;26;20000;-57
2024/04/24 09:56:43;;;;;;;4.83;3.57;;;;;;;;;;5348887;26;20007;-60
2024/04/24 09:59:09;;;;;;;3.42;3.13;;;;;;;;;;5378826;26;20473;-61
2024/04/24 10:01:37;;;;;;;5.25;3.88;;;;;;;;;;5379792;26;20000;-60
2024/04/24 10:04:04;;;;;;;4.03;3.63;;;;;;;;;;5379123;26;20000;-59
2024/04/24 10:06:31;;;;;;;5.40;3.35;;;;;;;;;;5379661;26;20000;-58
2024/04/24 10:09:00;;;;;;;5.70;3.28;;;;;;;;;;5378814;26;20012;-58
2024/04/24 10:11:29;;;;;;;3.85;3.45;;;;;;;;;;5378224;26;20437;-57
2024/04/24 10:13:57;;;;;;;3.97;3.25;;;;;;;;;;5378920;26;20325;-59
2024/04/24 10:16:23;;;;;;;5.72;2.53;;;;;;;;;;5377673;26;20015;-58
2024/04/24 10:18:50;;;;;;;5.45;3.00;;;;;;;;;;5378806;26;20390;-64
2024/04/24 10:21:18;;;;;;;4.32;3.33;;;;;;;;;;5375691;26;20011;-56
2024/04/24 10:23:45;;;;;;;4.70;3.42;;;;;;;;;;5361614;26;19996;-56
2024/04/24 10:26:11;;;;;;;;;;;;;;;;;;5381641;26;20399;-58
2024/04/24 10:28:38;;;;;;;4.35;3.70;;;;;;;;;;5361056;26;19938;-58
2024/04/24 10:31:04;;;;;;;7.00;4.18;;;;;;;;;;5348524;26;20408;-58
2024/04/24 10:33:31;;;;;;;4.83;3.80;;;;;;;;;;5380934;26;20033;-59
2024/04/24 10:35:57;;;;;;;5.20;3.83;;;;;;;;;;5380721;26;20218;-57
2024/04/24 10:38:28;;;;;;;5.03;3.67;;;;;;;;;;5380492;26;20011;-58
2024/04/24 10:40:54;;;;;;;6.97;3.97;;;;;;;;;;5366784;26;20032;-59
2024/04/24 10:43:23;;;;;;;5.22;4.13;;;;;;;;;;5356643;26;19993;-59
2024/04/24 10:45:52;;;;;;;7.22;3.83;;;;;;;;;;5362313;26;20457;-59
2024/04/24 10:48:19;;;;;;;7.40;4.97;;;;;;;;;;5380592;26;20024;-58
2024/04/24 10:50:47;;;;;;;4.47;3.85;;;;;;;;;;5379994;26;20010;-58
2024/04/24 10:53:16;;;;;;;6.05;4.60;;;;;;;;;;5349349;26;20011;-57
2024/04/24 10:55:53;;;;;;;7.38;5.55;;;;;;;;;;5381373;26;20018;-60
2024/04/24 10:58:22;;;;;;;5.47;4.50;;;;;;;;;;5375889;26;20016;-59
2024/04/24 11:00:49;;;;;;;6.57;4.97;;;;;;;;;;5385895;21;20273;-59
2024/04/24 11:03:17;;;;;;;5.38;4.43;;;;;;;;;;5380941;26;20007;-58
2024/04/24 11:05:43;;;;;;;6.80;4.88;;;;;;;;;;5347102;26;20364;-57
2024/04/24 11:08:15;;;;;;;7.22;4.85;;;;;;;;;;5346893;26;19994;-59
2024/04/24 11:10:49;;;;;;;5.65;5.15;;;;;;;;;;5348606;26;20040;-58
2024/04/24 11:13:15;;;;;;;5.30;4.80;;;;;;;;;;5366454;26;20051;-58
2024/04/24 11:15:41;;;;;;;5.30;4.80;;;;;;;;;;5381856;26;20087;-59
2024/04/24 11:18:08;;;;;;;8.63;4.23;;;;;;;;;;5380793;26;19996;-55
2024/04/24 11:20:37;;;;;;;11.25;5.13;;;;;;;;;;5347550;26;20766;-59
2024/04/24 11:23:08;;;;;;;4.85;4.43;;;;;;;;;;5379581;26;20008;-58
2024/04/24 11:25:36;;;;;;;6.68;6.05;;;;;;;;;;5382127;26;20339;-57
2024/04/24 11:28:02;;;;;;;7.07;5.15;;;;;;;;;;5381774;26;19996;-59
2024/04/24 11:30:28;;;;;;;6.57;5.85;;;;;;;;;;5381609;26;19992;-59
2024/04/24 11:32:55;;;;;;;5.55;4.90;;;;;;;;;;5381016;26;20352;-60
2024/04/24 11:35:22;;;;;;;5.57;4.90;;;;;;;;;;5381546;26;20000;-60
2024/04/24 11:37:48;;;;;;;5.30;4.72;;;;;;;;;;5381812;26;20036;-60
2024/04/24 11:40:15;;;;;;;5.25;4.60;;;;;;;;;;5381389;26;20077;-58
2024/04/24 11:42:42;;;;;;;5.38;4.32;;;;;;;;;;5381234;26;20004;-60
2024/04/24 11:45:08;;;;;;;7.57;5.35;;;;;;;;;;5381849;26;19993;-61
2024/04/24 11:47:35;;;;;;;7.40;5.30;;;;;;;;;;5381529;26;20403;-59
2024/04/24 11:50:01;;;;;;;6.72;4.82;;;;;;;;;;5381587;26;20011;-60
2024/04/24 11:52:36;;;;;;;5.90;4.77;;;;;;;;;;5381300;26;20004;-60
2024/04/24 11:55:02;;;;;;;6.45;4.10;;;;;;;;;;5344532;26;20071;-61
2024/04/24 11:57:36;;;;;;;4.55;4.15;;;;;;;;;;5353088;26;20012;-61
2024/04/24 12:00:02;;;;;;;5.35;4.82;;;;;;;;;;5380642;26;20008;-61
2024/04/24 12:02:34;;;;;;;5.72;5.20;;;;;;;;;;5380366;26;20010;-61
2024/04/24 12:05:06;;;;;;;5.03;4.50;;;;;;;;;;5374017;26;19996;-61
2024/04/24 12:07:33;;;;;;;6.13;5.00;;;;;;;;;;5378992;26;20000;-61
2024/04/24 12:10:06;;;;;;;6.50;4.28;;;;;;;;;;5378527;26;20007;-61
2024/04/24 12:12:34;;;;;;;5.10;4.45;;;;;;;;;;5346523;26;19997;-61
2024/04/24 12:15:00;;;;;;;8.27;4.53;;;;;;;;;;5376804;26;20479;-56
2024/04/24 12:17:26;;;;;;;4.80;4.30;;;;;;;;;;5347313;26;20485;-58
2024/04/24 12:19:52;;;;;;;17.75;6.50;;;;;;;;;;5314118;26;20005;-60
2024/04/24 12:22:18;;;;;;;8.30;4.53;;;;;;;;;;5315742;26;20338;-60
2024/04/24 12:24:46;;;;;;;5.28;4.45;;;;;;;;;;5354783;26;20004;-59
2024/04/24 12:27:12;;;;;;;5.18;4.65;;;;;;;;;;5361307;26;20015;-60
2024/04/24 12:29:38;;;;;;;7.40;4.75;;;;;;;;;;5350470;26;20394;-60
2024/04/24 12:32:04;;;;;;;4.35;3.95;;;;;;;;;;5344700;26;20013;-60
2024/04/24 12:34:31;;;;;;;5.30;4.43;;;;;;;;;;5348320;26;20001;-61
2024/04/24 12:36:57;;;;;;;9.17;4.33;;;;;;;;;;5365099;26;20020;-61
2024/04/24 12:39:23;;;;;;;5.17;3.70;;;;;;;;;;5343949;26;19997;-60
2024/04/24 12:41:49;;;;;;;4.43;4.03;;;;;;;;;;5354332;26;20000;-59
2024/04/24 12:44:15;;;;;;;5.35;4.85;;;;;;;;;;5345666;26;20238;-60
2024/04/24 12:46:42;;;;;;;7.60;4.60;;;;;;;;;;5376319;26;20004;-60
2024/04/24 12:49:08;;;;;;;5.55;3.58;;;;;;;;;;5376170;26;20004;-60
2024/04/24 12:51:35;;;;;;;4.28;3.53;;;;;;;;;;5378758;26;20095;-60
2024/04/24 12:54:01;;;;;;;3.67;2.92;;;;;;;;;;5376074;26;20019;-61
2024/04/24 12:56:28;;;;;;;4.50;4.00;;;;;;;;;;5350278;26;20329;-60
2024/04/24 12:58:54;;;;;;;4.77;3.80;;;;;;;;;;5375550;26;20011;-58
2024/04/24 13:01:21;;;;;;;7.53;4.33;;;;;;;;;;5360675;26;20012;-60
2024/04/24 13:03:47;;;;;;;4.10;3.78;;;;;;;;;;5373966;26;20004;-59
2024/04/24 13:06:17;;;;;;;3.65;3.30;;;;;;;;;;5375894;26;20482;-62
2024/04/24 13:08:43;;;;;;;3.33;3.03;;;;;;;;;;5378557;26;20482;-61
2024/04/24 13:11:09;;;;;;;11.80;8.15;;;;;;;;;;5378138;26;20004;-59
2024/04/24 13:13:35;;;;;;;3.83;3.53;;;;;;;;;;5373455;26;20083;-59
2024/04/24 13:16:02;;;;;;;9.03;3.00;;;;;;;;;;5377506;26;20826;-59
2024/04/24 13:18:28;;;;;;;4.10;3.80;;;;;;;;;;5378586;26;20234;-59
2024/04/24 13:20:54;;;;;;;3.27;2.97;;;;;;;;;;5378416;26;20278;-60
2024/04/24 13:23:20;;;;;;;5.68;4.47;;;;;;;;;;5375418;26;20004;-57
2024/04/24 13:25:49;;;;;;;3.00;2.80;;;;;;;;;;5328597;26;20009;-60
2024/04/24 13:28:16;;;;;;;3.35;3.05;;;;;;;;;;5360522;26;20000;-58
2024/04/24 13:30:42;;;;;;;3.40;2.95;;;;;;;;;;5359822;26;20019;-58
2024/04/24 13:33:08;;;;;;;3.22;2.72;;;;;;;;;;5369625;26;20004;-60
2024/04/24 13:35:38;;;;;;;3.70;3.33;;;;;;;;;;5341956;26;19996;-59
2024/04/24 13:38:04;;;;;;;3.08;2.78;;;;;;;;;;5380476;26;20004;-63
2024/04/24 13:40:30;;;;;;;3.22;2.90;;;;;;;;;;5378463;26;20008;-63
2024/04/24 13:42:57;;;;;;;4.57;3.17;;;;;;;;;;5378265;26;20471;-63
2024/04/24 13:45:23;;;;;;;3.80;3.40;;;;;;;;;;5379004;26;20048;-62
2024/04/24 13:47:50;;;;;;;3.35;2.92;;;;;;;;;;5348446;26;20492;-62
2024/04/24 13:50:17;;;;;;;3.30;3.00;;;;;;;;;;5377848;26;20000;-63
2024/04/24 13:52:43;;;;;;;3.67;3.03;;;;;;;;;;5378558;26;20019;-63
2024/04/24 13:55:09;;;;;;;3.85;3.55;;;;;;;;;;5374831;26;20085;-62
2024/04/24 13:57:35;;;;;;;3.70;2.83;;;;;;;;;;5380894;26;20019;-63
2024/04/24 14:00:01;;;;;;;4.18;2.97;;;;;;;;;;5340778;26;20005;-60
2024/04/24 14:02:35;;;;;;;4.88;3.90;;;;;;;;;;5377324;26;20756;-62
2024/04/24 14:05:02;;;;;;;3.65;3.35;;;;;;;;;;5372793;26;19996;-63
2024/04/24 14:07:28;;;;;;;3.75;3.10;;;;;;;;;;5352083;26;20352;-61
2024/04/24 14:09:54;;;;;;;3.35;3.05;;;;;;;;;;5346890;26;20001;-62
2024/04/24 14:12:20;;;;;;;5.10;3.65;;;;;;;;;;5347870;26;20000;-61
2024/04/24 14:14:47;;;;;;;4.72;3.45;;;;;;;;;;5347512;26;20001;-62
2024/04/24 14:17:13;;;;;;;3.50;3.15;;;;;;;;;;5317378;26;19996;-62
2024/04/24 14:19:39;;;;;;;4.65;3.03;;;;;;;;;;5347223;26;20001;-62
2024/04/24 14:22:05;;;;;;;3.67;2.67;;;;;;;;;;5347420;26;20465;-54
2024/04/24 14:24:31;;;;;;;3.53;2.78;;;;;;;;;;5347759;26;20005;-62
2024/04/24 14:26:58;;;;;;;2.85;2.55;;;;;;;;;;5347726;26;20036;-61
2024/04/24 14:29:24;;;;;;;13.95;3.13;;;;;;;;;;5347254;26;20712;-60
2024/04/24 14:31:50;;;;;;;4.10;3.67;;;;;;;;;;5347356;26;19996;-59